Latest Weather Observations for Port Macquarie Airport

IDN60801

Issued at 11:32 am EST Saturday 25 April 2015 (issued every 30 minutes, with the page automatically refreshed every 10 minutes)

About weather observations | Map of weather stations | Latest weather observations for NSW | Other Formats
Station Details ID: 060139 Name: PORT MACQUARIE AIRPORT AWS Lat: -31.43 Lon: 152.87 Height: 4.2 m
Data from the previous 72 hours. | See also: Recent months at Port Macquarie Airport
Date/Time
EST
Temp
°C
App
Temp
°C
Dew
Point
Rel
Hum
%
Delta-T
°C
Wind Press
QNH
hPa
Press
MSL
hPa
Rain
since 9 am
mm
Dir
 
Spd
km/h
Gust
km/h
Spd
kts
Gust
kts
25/11:30am 25.2 24.2 12.4 45 7.4 NE 9 17 5 9 1008.1 1008.1 0.0
25/11:00am 24.2 22.9 11.2 44 7.3 N 9 13 5 7 1008.5 1008.5 0.0
25/10:30am 23.7 23.0 13.3 52 6.0 W 9 13 5 7 1008.9 1008.9 0.0
25/10:00am 22.6 22.1 13.7 57 5.2 W 9 11 5 6 1009.2 1009.2 0.0
25/09:30am 21.4 21.6 14.8 66 3.9 WNW 7 11 4 6 1009.5 1009.5 0.0
25/09:00am 20.0 18.8 15.0 73 2.9 NW 15 17 8 9 1009.5 1009.5 0.0
25/08:30am 18.8 18.5 14.5 76 2.5 WNW 9 15 5 8 1009.5 1009.5 0.0
25/08:00am 17.1 17.0 13.8 81 1.9 WNW 7 11 4 6 1009.4 1009.4 0.0
25/07:30am 15.4 15.4 13.6 89 1.0 W 6 7 3 4 1009.3 1009.3 0.0
25/07:00am 13.6 14.5 13.0 96 0.3 CALM 0 9 0 5 1009.0 1009.0 0.0
25/06:30am 12.3 12.0 11.4 94 0.5 WSW 4 6 2 3 1008.5 1008.5 0.0
25/06:00am 13.0 12.5 12.2 95 0.4 SSW 6 7 3 4 1008.4 1008.4 0.0
25/05:30am 12.9 12.5 12.3 96 0.3 NNW 6 13 3 7 1008.0 1008.0 0.0
25/05:00am 11.9 12.3 11.1 95 0.4 CALM 0 0 0 0 1008.0 1008.0 0.0
25/04:30am 13.0 13.8 12.4 96 0.3 CALM 0 0 0 0 1007.8 1007.8 0.0
25/04:00am 12.7 13.3 11.9 95 0.4 CALM 0 0 0 0 1007.7 1007.7 0.0
25/03:30am 14.0 15.1 13.4 96 0.3 CALM 0 6 0 3 1007.6 1007.6 0.0
25/03:00am 13.0 13.8 12.4 96 0.3 CALM 0 0 0 0 1007.7 1007.7 0.0
25/02:30am 14.0 15.1 13.4 96 0.3 CALM 0 6 0 3 1007.7 1007.7 0.0
25/02:00am 13.7 14.6 12.9 95 0.4 CALM 0 0 0 0 1007.8 1007.8 0.0
25/01:30am 14.5 15.7 13.7 95 0.4 CALM 0 0 0 0 1008.0 1008.0 0.0
25/01:00am 15.1 16.5 14.5 96 0.3 CALM 0 0 0 0 1008.1 1008.1 0.0
25/12:30am 14.9 16.3 14.3 96 0.3 CALM 0 0 0 0 1008.1 1008.1 0.0
25/12:00am 15.0 16.4 14.4 96 0.3 CALM 0 0 0 0 1008.1 1008.1 0.0
 
Date/Time
EST
Temp
°C
App
Temp
°C
Dew
Point
Rel
Hum
%
Delta-T
°C
Wind Press
QNH
hPa
Press
MSL
hPa
Rain
since 9 am
mm
Dir
 
Spd
km/h
Gust
km/h
Spd
kts
Gust
kts
24/11:30pm 14.8 16.1 14.0 95 0.4 CALM 0 0 0 0 1008.2 1008.2 0.0
24/11:00pm 14.6 15.8 13.8 95 0.4 CALM 0 0 0 0 1008.2 1008.2 0.0
24/10:30pm 14.3 15.3 13.3 94 0.6 CALM 0 0 0 0 1008.2 1008.2 0.0
24/10:00pm 14.7 15.8 13.6 93 0.6 CALM 0 0 0 0 1008.3 1008.3 0.0
24/09:30pm 14.5 15.5 13.2 92 0.7 CALM 0 0 0 0 1008.4 1008.4 0.0
24/09:00pm 15.4 16.6 13.9 91 0.8 CALM 0 0 0 0 1008.4 1008.4 0.0
24/08:30pm 15.7 15.7 14.1 90 0.9 SW 7 9 4 5 1008.3 1008.3 0.0
24/08:00pm 16.4 17.7 14.2 87 1.3 CALM 0 0 0 0 1008.0 1008.0 0.0
24/07:30pm 17.0 18.3 14.1 83 1.7 CALM 0 0 0 0 1007.8 1007.8 0.0
24/07:00pm 18.8 19.2 15.3 80 2.1 N 7 9 4 5 1007.7 1007.7 0.0
24/06:30pm 19.4 19.7 15.1 76 2.5 NNW 7 9 4 5 1007.6 1007.6 0.0
24/06:00pm 19.4 19.9 15.5 78 2.3 N 7 9 4 5 1007.1 1007.1 0.0
24/05:30pm 21.0 21.0 15.3 70 3.4 NNE 9 13 5 7 1006.6 1006.6 0.0
24/05:00pm 22.4 22.0 15.3 64 4.2 NE 11 15 6 8 1006.4 1006.4 0.0
24/04:30pm 23.2 23.1 15.0 60 4.9 NE 9 13 5 7 1006.4 1006.4 0.0
24/04:00pm 23.7 23.0 15.5 60 4.9 NE 13 15 7 8 1006.4 1006.4 0.0
24/03:30pm 24.1 23.1 14.5 55 5.7 ENE 13 17 7 9 1006.3 1006.3 0.0
24/03:00pm 24.3 22.8 14.1 53 6.0 NE 15 20 8 11 1006.3 1006.3 0.0
24/02:30pm 24.1 23.7 16.1 61 4.9 NE 13 17 7 9 1006.6 1006.6 0.0
24/02:00pm 24.7 25.1 17.2 63 4.7 NE 11 15 6 8 1006.6 1006.6 0.0
24/01:30pm 25.2 26.5 17.1 60 5.0 E 6 15 3 8 1006.7 1006.7 0.0
24/01:00pm 24.6 25.3 15.5 57 5.5 N 6 9 3 5 1006.9 1006.9 0.0
24/12:30pm 22.3 23.5 14.9 63 4.4 N 2 7 1 4 1007.5 1007.5 0.0
24/12:00pm 21.3 21.7 15.4 69 3.5 WNW 7 11 4 6 1008.1 1008.1 0.0
24/11:30am 20.9 22.3 15.4 71 3.3 NW 2 9 1 5 1008.4 1008.4 0.0
24/11:00am 20.2 19.7 15.0 72 3.1 WNW 11 13 6 7 1009.1 1009.1 0.0
24/10:30am 19.2 18.5 14.2 73 2.9 NW 11 13 6 7 1009.0 1009.0 0.0
24/10:00am 19.0 19.4 14.7 76 2.5 W 6 11 3 6 1008.9 1008.9 0.0
24/09:30am 18.4 18.6 15.8 85 1.5 WNW 9 11 5 6 1009.3 1009.3 0.0
24/09:00am 17.0 16.9 15.0 88 1.2 WNW 9 11 5 6 1009.4 1009.4 0.0
24/08:30am 16.3 16.5 14.8 91 0.9 NNW 7 9 4 5 1009.7 1009.7 0.0
24/08:00am 15.4 15.5 14.4 94 0.6 NW 7 9 4 5 1009.6 1009.6 0.0
24/07:30am 15.0 15.5 14.0 94 0.6 NNW 4 7 2 4 1009.3 1009.3 0.0
24/07:00am 14.6 14.7 13.8 95 0.4 WNW 6 7 3 4 1009.4 1009.4 0.0
24/06:30am 14.0 13.7 13.2 95 0.4 W 7 9 4 5 1009.2 1009.2 0.0
24/06:00am 14.3 13.4 13.7 96 0.3 WNW 11 15 6 8 1009.2 1009.2 0.0
24/05:30am 14.1 13.2 13.6 97 0.3 NW 11 15 6 8 1009.2 1009.2 0.0
24/05:00am 13.9 13.6 13.4 97 0.3 NW 7 9 4 5 1009.0 1009.0 0.0
24/04:30am 14.2 15.0 13.7 97 0.3 NW 2 7 1 4 1008.9 1008.9 0.0
24/04:00am 14.0 14.0 13.5 97 0.3 NW 6 7 3 4 1009.1 1009.1 0.0
24/03:30am 13.4 13.5 12.8 96 0.3 WNW 4 7 2 4 1009.0 1009.0 0.0
24/03:00am 13.5 14.0 12.9 96 0.3 WNW 2 7 1 4 1009.1 1009.1 0.0
24/02:30am 14.4 15.6 13.9 97 0.3 CALM 0 0 0 0 1009.3 1009.3 0.0
24/02:00am 14.3 15.5 13.8 97 0.3 CALM 0 0 0 0 1009.4 1009.4 0.0
24/01:30am 13.2 14.0 12.6 96 0.3 CALM 0 0 0 0 1009.6 1009.6 0.0
24/01:02am 12.9 13.6 12.1 95 0.4 CALM 0 0 0 0 1009.7 1009.7 0.0
24/01:00am 13.0 13.7 12.2 95 0.4 CALM 0 0 0 0 1009.8 1009.8 0.0
24/12:30am 13.5 14.3 12.7 95 0.4 CALM 0 0 0 0 1010.0 1010.0 0.0
24/12:00am 13.3 14.1 12.5 95 0.4 CALM 0 0 0 0 1010.1 1010.1 0.0
 
Date/Time
EST
Temp
°C
App
Temp
°C
Dew
Point
Rel
Hum
%
Delta-T
°C
Wind Press
QNH
hPa
Press
MSL
hPa
Rain
since 9 am
mm
Dir
 
Spd
km/h
Gust
km/h
Spd
kts
Gust
kts
23/11:30pm 13.5 14.3 12.6 94 0.5 CALM 0 0 0 0 1010.6 1010.6 0.0
23/11:00pm 13.8 14.7 12.9 94 0.5 CALM 0 0 0 0 1010.7 1010.7 0.0
23/10:58pm 13.8 14.7 13.0 95 0.4 CALM 0 0 0 0 1010.7 1010.7 0.0
23/10:30pm 13.5 14.2 12.2 92 0.7 CALM 0 0 0 0 1010.9 1010.9 0.0
23/10:24pm 13.8 14.6 12.5 92 0.7 CALM 0 0 0 0 1010.9 1010.9 0.0
23/10:00pm 14.9 16.0 13.6 92 0.7 CALM 0 0 0 0 1011.1 1011.1 0.0
23/09:30pm 15.3 16.6 14.0 92 0.7 CALM 0 0 0 0 1011.1 1011.1 0.0
23/09:00pm 16.1 17.7 15.0 93 0.6 CALM 0 0 0 0 1011.2 1011.2 0.0
23/08:30pm 16.7 17.8 15.6 93 0.6 SSW 4 6 2 3 1011.1 1011.1 0.0
23/08:00pm 16.4 16.9 15.1 92 0.8 SSW 6 6 3 3 1011.0 1011.0 0.0
23/07:30pm 16.6 18.3 15.1 91 0.9 CALM 0 0 0 0 1010.8 1010.8 0.0
23/07:00pm 16.9 18.5 14.9 88 1.2 CALM 0 0 0 0 1010.8 1010.8 0.0
23/06:30pm 17.6 19.3 15.2 86 1.4 CALM 0 0 0 0 1010.8 1010.8 0.0
23/06:00pm 18.1 19.5 15.5 85 1.5 SW 2 6 1 3 1010.3 1010.3 0.0
23/05:30pm 19.0 20.8 15.5 80 2.1 CALM 0 0 0 0 1010.0 1010.0 0.0
23/05:00pm 20.2 20.7 15.0 72 3.1 ESE 6 7 3 4 1009.9 1009.9 0.0
23/04:30pm 20.4 19.8 13.6 65 3.9 SE 9 11 5 6 1009.7 1009.7 0.0
23/04:00pm 21.5 20.7 13.9 62 4.4 ESE 11 13 6 7 1009.5 1009.5 0.0
23/03:30pm 21.4 20.5 13.6 61 4.5 ESE 11 17 6 9 1009.6 1009.6 0.0
23/03:00pm 22.0 20.9 14.4 62 4.5 ESE 13 20 7 11 1009.6 1009.6 0.0
23/02:30pm 21.4 20.8 14.6 65 4.0 SE 11 13 6 7 1009.7 1009.7 0.0
23/02:00pm 22.0 20.8 14.1 61 4.6 ENE 13 19 7 10 1009.7 1009.7 0.0
23/01:30pm 22.5 21.9 14.6 61 4.7 ESE 11 17 6 9 1009.7 1009.7 0.0
23/01:00pm 22.6 21.8 13.9 58 5.1 E 11 15 6 8 1009.9 1009.9 0.0
23/12:30pm 22.5 23.0 12.7 54 5.6 WSW 2 7 1 4 1010.4 1010.4 0.0
23/12:00pm 23.3 22.8 13.8 55 5.5 SW 9 15 5 8 1010.9 1010.9 0.0
23/11:30am 22.9 23.0 13.9 57 5.3 WNW 6 11 3 6 1011.5 1011.5 0.0
23/11:00am 22.4 22.2 13.5 57 5.1 NW 7 13 4 7 1011.9 1011.9 0.0
23/10:30am 21.6 22.0 13.8 61 4.5 NW 4 7 2 4 1012.0 1012.0 0.0
23/10:00am 21.0 21.3 14.9 68 3.6 WNW 7 11 4 6 1012.1 1012.1 0.0
23/09:30am 19.8 19.4 14.0 69 3.3 WSW 9 13 5 7 1012.2 1012.2 0.0
23/09:00am 18.6 17.6 14.7 78 2.3 WSW 13 17 7 9 1012.2 1012.2 1.0
23/08:30am 17.4 16.9 15.0 86 1.4 W 11 15 6 8 1012.3 1012.3 1.0
23/08:00am 15.9 15.4 14.8 93 0.6 SW 11 15 6 8 1012.6 1012.6 1.0
23/07:30am 14.7 14.8 13.9 95 0.4 WNW 6 9 3 5 1012.4 1012.4 1.0
23/07:00am 14.3 15.5 13.7 96 0.3 CALM 0 7 0 4 1012.1 1012.1 1.0
23/06:30am 13.9 13.8 13.3 96 0.3 N 6 7 3 4 1011.7 1011.7 1.0
23/06:00am 13.7 13.9 13.1 96 0.3 W 4 7 2 4 1011.3 1011.3 1.0
23/05:30am 13.7 13.4 13.2 97 0.3 WSW 7 11 4 6 1011.3 1011.3 1.0
23/05:00am 13.6 14.2 13.1 97 0.3 WSW 2 7 1 4 1011.2 1011.2 1.0
23/04:30am 13.6 13.9 13.3 98 0.2 WSW 4 9 2 5 1011.0 1011.0 1.0
23/04:00am 13.0 13.1 12.7 98 0.2 W 4 9 2 5 1011.0 1011.0 1.0
23/03:30am 12.9 13.7 12.6 98 0.2 CALM 0 0 0 0 1010.8 1010.8 1.0
23/03:03am 13.2 13.4 12.9 98 0.2 NW 4 6 2 3 1010.9 1010.9 1.0
23/03:00am 13.2 13.4 12.9 98 0.2 NW 4 6 2 3 1010.9 1010.9 1.0
23/02:57am 13.2 13.4 12.9 98 0.2 NW 4 6 2 3 1010.9 1010.9 1.0
23/02:30am 13.3 13.5 13.0 98 0.2 WNW 4 7 2 4 1010.7 1010.7 1.0
23/02:00am 13.3 13.0 12.8 97 0.3 WNW 6 6 3 3 1010.7 1010.7 0.8
23/01:58am 13.3 13.1 13.0 98 0.2 WNW 6 6 3 3 1010.7 1010.7 0.8
23/01:53am 13.3 13.0 12.8 97 0.3 WNW 6 7 3 4 1010.8 1010.8 0.8
23/01:52am 13.3 13.0 12.8 97 0.3 WNW 6 7 3 4 1010.8 1010.8 0.8
23/01:51am 13.3 13.0 12.8 97 0.3 WNW 6 7 3 4 1010.8 - 0.8
23/01:40am 13.3 13.9 13.0 98 0.2 WNW 2 7 1 4 1011.0 1011.0 0.8
23/01:39am 13.3 13.9 13.0 98 0.2 W 2 7 1 4 1011.0 - 0.8
23/01:30am 13.6 13.9 13.3 98 0.2 WSW 4 7 2 4 1011.0 1011.0 0.8
23/01:22am 13.6 13.5 13.3 98 0.2 W 6 7 3 4 1011.0 1011.0 0.8
23/01:21am 13.6 13.4 13.1 97 0.3 W 6 7 3 4 1011.0 1011.0 0.8
23/01:20am 13.6 13.4 13.1 97 0.3 W 6 7 3 4 1011.0 - 0.8
23/01:00am 13.6 13.2 13.1 97 0.3 W 7 9 4 5 1011.2 1011.2 0.8
23/12:40am 13.8 14.1 13.5 98 0.2 WNW 4 6 2 3 1011.4 1011.4 0.8
23/12:30am 13.9 15.0 13.6 98 0.2 CALM 0 6 0 3 1011.3 1011.3 0.8
23/12:20am 13.9 14.3 13.6 98 0.2 W 4 9 2 5 1011.4 1011.4 0.8
23/12:00am 14.0 14.0 13.7 98 0.2 WSW 6 7 3 4 1011.5 1011.5 0.8
 
Date/Time
EST
Temp
°C
App
Temp
°C
Dew
Point
Rel
Hum
%
Delta-T
°C
Wind Press
QNH
hPa
Press
MSL
hPa
Rain
since 9 am
mm
Dir
 
Spd
km/h
Gust
km/h
Spd
kts
Gust
kts
22/11:30pm 14.4 13.6 13.9 97 0.3 WNW 11 13 6 7 1011.8 1011.8 0.8
22/11:00pm 14.6 15.5 14.0 96 0.3 NW 2 6 1 3 1012.1 1012.1 0.8
22/10:42pm 14.7 15.6 14.1 96 0.3 NNW 2 6 1 3 1012.1 1012.1 0.8
22/10:41pm 14.8 15.8 14.2 96 0.3 NNW 2 6 1 3 1012.1 - 0.8
22/10:30pm 14.1 13.9 13.1 94 0.6 NW 6 7 3 4 1012.2 1012.2 0.8
22/10:06pm 14.9 16.1 13.9 94 0.6 CALM 0 0 0 0 1012.3 1012.3 0.8
22/10:00pm 15.1 16.4 14.1 94 0.6 CALM 0 0 0 0 1012.4 1012.4 0.8
22/09:30pm 15.7 16.1 14.7 94 0.6 NW 6 7 3 4 1012.5 1012.5 0.8
22/09:00pm 16.1 16.6 15.1 94 0.6 NW 6 9 3 5 1012.5 1012.5 0.8
22/08:30pm 16.2 16.5 15.1 93 0.6 ESE 7 11 4 6 1012.3 1012.3 0.8
22/08:00pm 16.3 16.8 15.5 95 0.5 SW 7 11 4 6 1012.5 1012.5 0.8
22/07:49pm 16.5 18.3 15.5 94 0.6 CALM 0 7 0 4 1012.5 - 0.8
22/07:30pm 16.4 16.5 15.4 94 0.6 WSW 9 13 5 7 1012.7 1012.7 0.6
22/07:05pm 16.7 16.0 15.4 92 0.8 W 13 19 7 10 1012.6 1012.6 0.4
22/07:00pm 16.9 16.3 15.6 92 0.8 W 13 17 7 9 1012.5 1012.5 0.2
22/06:30pm 17.6 17.4 14.7 83 1.7 WSW 9 15 5 8 1011.9 1011.9 0.0
22/06:00pm 17.9 19.6 15.2 84 1.6 CALM 0 0 0 0 1011.6 1011.6 0.0
22/05:30pm 18.8 20.2 14.5 76 2.5 CALM 0 6 0 3 1011.3 1011.3 0.0
22/05:00pm 19.4 18.8 13.6 69 3.3 ENE 9 13 5 7 1011.1 1011.1 0.0
22/04:30pm 20.3 19.6 13.3 64 4.0 ENE 9 13 5 7 1010.8 1010.8 0.0
22/04:00pm 21.2 20.7 13.9 63 4.2 E 9 13 5 7 1010.6 1010.6 0.0
22/03:30pm 20.4 20.4 14.1 67 3.6 SE 7 9 4 5 1010.6 1010.6 0.0
22/03:00pm 20.2 19.8 12.9 63 4.1 SE 7 11 4 6 1010.5 1010.5 0.0
22/02:30pm 20.7 19.6 13.2 62 4.3 S 11 15 6 8 1010.3 1010.3 0.0
22/02:00pm 20.9 19.9 13.4 62 4.3 SE 11 17 6 9 1010.4 1010.4 0.0
22/01:30pm 20.5 19.6 12.7 61 4.4 SE 9 15 5 8 1010.4 1010.4 0.0
22/01:00pm 22.8 22.4 14.1 58 5.1 N 9 15 5 8 1010.4 1010.4 0.0
22/12:30pm 22.6 22.1 12.8 54 5.6 NW 7 11 4 6 1010.6 1010.6 0.0
22/12:00pm 21.8 20.7 11.8 53 5.6 WNW 9 15 5 8 1011.1 1011.1 0.0

Other Formats:

Comma delimited format used in spreadsheet applications
http://www.bom.gov.au/fwo/IDN60801/IDN60801.94786.axf

JavaScript Object Notation format (JSON) in row-major order
http://www.bom.gov.au/fwo/IDN60801/IDN60801.94786.json